Time;durP1;ratioP1;P1;durP2;ratioP2;P2;SDS_P1;SDS_P2;PMS_P1;PMS_P2;Temp;Humidity;BMP_temperature;BMP_pressure;BME280_temperature;BME280_humidity;BME280_pressure;Samples;Min_cycle;Max_cycle;Signal;HPM_P1;HPM_P2
2022/03/23 00:00:30;;;;;;;;;49.00;39.00;;;;;13.15;41.09;102475.03;5098550;27;46095;-49
2022/03/23 00:02:55;;;;;;;;;52.25;39.00;;;;;13.12;40.55;102478.78;5098572;27;45479;-48
2022/03/23 00:05:21;;;;;;;;;50.25;40.00;;;;;13.09;40.75;102478.16;5098709;27;45358;-50
2022/03/23 00:07:46;;;;;;;;;58.75;43.75;;;;;13.06;41.00;102476.59;5098658;27;45352;-50
2022/03/23 00:10:12;;;;;;;;;55.25;40.00;;;;;13.06;41.22;102484.63;5098621;27;45497;-50
2022/03/23 00:12:37;;;;;;;;;57.75;44.50;;;;;13.03;40.83;102484.00;5098541;27;45407;-50
2022/03/23 00:15:03;;;;;;;;;55.75;40.00;;;;;12.99;41.04;102483.41;5098649;27;45473;-50
2022/03/23 00:17:28;;;;;;;;;55.25;41.25;;;;;12.88;41.38;102475.34;5098673;27;45328;-50
2022/03/23 00:19:54;;;;;;;;;51.00;41.75;;;;;12.88;40.89;102478.03;5098133;27;45779;-49
2022/03/23 00:22:20;;;;;;;;;57.75;40.25;;;;;12.96;41.46;102488.97;5098185;27;45356;-49
2022/03/23 00:24:46;;;;;;;;;60.00;43.00;;;;;12.94;41.12;102497.13;5098131;27;45245;-48
2022/03/23 00:27:11;;;;;;;;;52.75;41.00;;;;;12.92;41.17;102493.69;5098515;27;45502;-50
2022/03/23 00:29:37;;;;;;;;;52.25;41.50;;;;;12.91;41.05;102491.16;5097937;27;46869;-48
2022/03/23 00:32:03;;;;;;;;;51.50;41.00;;;;;12.88;40.84;102486.03;5098103;27;45216;-48
2022/03/23 00:34:28;;;;;;;;;31.50;22.25;;;;;12.86;41.25;102493.34;5098047;27;45380;-48
2022/03/23 00:36:54;;;;;;;;;58.75;39.75;;;;;12.83;41.45;102498.91;5098331;27;45251;-49
2022/03/23 00:39:22;;;;;;;;;54.00;40.50;;;;;12.79;41.06;102502.78;5097480;27;46086;-50
2022/03/23 00:41:49;;;;;;;;;53.50;39.75;;;;;12.80;41.36;102501.81;5097984;27;45445;-52
2022/03/23 00:44:15;;;;;;;;;42.50;36.00;;;;;12.78;41.54;102501.94;5098139;27;45344;-48
2022/03/23 00:46:40;;;;;;;;;59.25;43.25;;;;;12.76;41.52;102505.69;5096674;27;45347;-49
2022/03/23 00:49:09;;;;;;;;;59.50;42.75;;;;;12.73;41.59;102498.78;5097947;27;46075;-49
2022/03/23 00:51:35;;;;;;;;;52.50;42.25;;;;;12.67;41.08;102491.22;5097751;27;45315;-52
2022/03/23 00:54:00;;;;;;;;;56.00;39.25;;;;;12.70;41.61;102501.69;5097718;27;45395;-49
2022/03/23 00:56:26;;;;;;;;;51.25;39.50;;;;;12.68;40.87;102498.25;5098122;27;45424;-50
2022/03/23 00:58:51;;;;;;;;;57.50;38.75;;;;;12.65;40.94;102496.69;5097720;27;45303;-49
2022/03/23 01:01:17;;;;;;;;;52.00;40.25;;;;;12.63;41.09;102497.75;5097875;27;45400;-50
2022/03/23 01:03:42;;;;;;;;;57.50;43.25;;;;;12.56;41.11;102491.22;5097718;27;45390;-50
2022/03/23 01:06:08;;;;;;;;;54.25;39.75;;;;;12.55;40.91;102495.66;5097933;27;45435;-50
2022/03/23 01:08:34;;;;;;;;;47.25;35.75;;;;;12.54;40.52;102503.81;5097359;27;45485;-49
2022/03/23 01:11:00;;;;;;;;;37.75;29.00;;;;;12.41;40.99;102487.88;5097092;27;45387;-53
2022/03/23 01:13:25;;;;;;;;;51.50;36.50;;;;;12.47;40.84;102498.94;5097485;27;45438;-52
2022/03/23 01:15:50;;;;;;;;;48.50;35.75;;;;;12.43;40.66;102502.81;5097817;27;45401;-52
2022/03/23 01:18:16;;;;;;;;;54.25;41.75;;;;;12.40;40.73;102504.84;5097421;27;46237;-52
2022/03/23 01:20:41;;;;;;;;;48.50;37.00;;;;;12.33;40.79;102492.94;5097526;27;45316;-49
2022/03/23 01:23:07;;;;;;;;;53.00;39.25;;;;;12.34;40.83;102500.81;5097343;27;45391;-48
2022/03/23 01:25:32;;;;;;;;;54.50;38.00;;;;;12.32;41.03;102500.09;5097691;27;45476;-49
2022/03/23 01:27:58;;;;;;;;;47.75;37.00;;;;;12.30;40.70;102496.66;5097153;27;45637;-50
2022/03/23 01:30:23;;;;;;;;;52.25;38.75;;;;;12.29;40.78;102499.47;5097297;27;45293;-54
2022/03/23 01:32:49;;;;;;;;;58.75;41.00;;;;;12.25;41.58;102490.84;5097250;27;45274;-50
2022/03/23 01:35:14;;;;;;;;;50.00;38.75;;;;;12.23;41.30;102492.78;5097718;27;45258;-51
2022/03/23 01:37:40;;;;;;;;;46.50;34.50;;;;;12.19;41.26;102494.81;5097265;27;45469;-50
2022/03/23 01:40:08;;;;;;;;;52.25;37.75;;;;;12.17;41.08;102496.72;5097137;27;45245;-53
2022/03/23 01:42:34;;;;;;;;;53.50;40.75;;;;;12.16;40.65;102500.38;5097154;27;45483;-50
2022/03/23 01:44:59;;;;;;;;;48.75;36.00;;;;;12.12;40.96;102495.38;5097197;27;45366;-49
2022/03/23 01:47:25;;;;;;;;;53.25;37.50;;;;;11.99;40.82;102479.44;5096850;27;47211;-50
2022/03/23 01:49:53;;;;;;;;;47.75;36.75;;;;;12.05;40.92;102496.78;5096697;27;45840;-49
2022/03/23 01:52:22;;;;;;;;;40.50;24.00;;;;;12.03;40.70;102494.25;5097110;27;45404;-50
2022/03/23 01:54:48;;;;;;;;;38.25;32.50;;;;;11.96;40.81;102488.50;5096754;27;45429;-47
2022/03/23 01:57:15;;;;;;;;;39.00;33.75;;;;;11.95;40.61;102489.47;5096854;27;46105;-52
2022/03/23 01:59:41;;;;;;;;;50.25;36.75;;;;;11.89;40.41;102486.44;5096926;27;45324;-49
2022/03/23 02:02:08;;;;;;;;;50.00;37.00;;;;;11.87;41.03;102489.19;5096663;27;45465;-51
2022/03/23 02:04:34;;;;;;;;;53.00;38.50;;;;;11.86;40.91;102486.66;5096996;27;45285;-48
2022/03/23 02:06:59;;;;;;;;;47.25;38.50;;;;;11.82;41.22;102487.81;5096428;27;46320;-47
2022/03/23 02:09:27;;;;;;;;;49.00;38.00;;;;;11.82;41.32;102493.13;5096598;27;45256;-50
2022/03/23 02:11:53;;;;;;;;;41.25;33.25;;;;;11.77;40.88;102484.63;5096642;27;45359;-52
2022/03/23 02:14:19;;;;;;;;;45.75;37.25;;;;;11.76;41.02;102488.25;5097211;27;45499;-49
2022/03/23 02:16:48;;;;;;;;;38.25;21.25;;;;;11.73;41.09;102494.66;5097027;27;46067;-51
2022/03/23 02:19:14;;;;;;;;;42.75;37.50;;;;;11.68;40.98;102492.31;5096640;27;45261;-50
2022/03/23 02:21:44;;;;;;;;;46.25;33.75;;;;;11.65;40.87;102494.34;5097305;27;45296;-49
2022/03/23 02:24:10;;;;;;;;;41.00;31.25;;;;;11.61;41.23;102491.06;5100461;27;45425;-50
2022/03/23 02:26:37;;;;;;;;;54.75;37.25;;;;;11.59;41.24;102489.47;5099875;27;47256;-50
2022/03/23 02:29:04;;;;;;;;;42.00;33.75;;;;;11.54;41.10;102491.59;5098636;27;45360;-50
2022/03/23 02:31:30;;;;;;;;;45.25;39.25;;;;;11.46;41.41;102484.16;5100103;27;45260;-49
2022/03/23 02:33:55;;;;;;;;;33.75;30.75;;;;;11.46;41.42;102493.03;5100317;27;45370;-49
2022/03/23 02:36:21;;;;;;;;;43.25;35.00;;;;;11.43;40.93;102489.72;5099854;27;46472;-50
2022/03/23 02:38:46;;;;;;;;;38.25;34.75;;;;;11.37;41.37;102490.16;5099649;27;45456;-49
2022/03/23 02:41:13;;;;;;;;;44.25;34.00;;;;;11.34;41.34;102495.72;5100088;27;45546;-50
2022/03/23 02:43:38;;;;;;;;;46.75;36.00;;;;;11.29;41.21;102497.81;5100015;27;45389;-47
2022/03/23 02:46:05;;;;;;;;;38.25;35.00;;;;;11.15;41.78;102475.69;5099743;27;45413;-50
2022/03/23 02:48:30;;;;;;;;;38.75;34.50;;;;;11.12;41.80;102485.69;5099799;27;45519;-50
2022/03/23 02:50:56;;;;;;;;;48.25;37.75;;;;;11.16;41.81;102495.19;5099604;27;45486;-49
2022/03/23 03:02:10;;;;;;;;;43.00;36.00;;;;;11.02;41.47;102497.97;5099727;27;45452;-47
2022/03/23 03:04:35;;;;;;;;;38.00;29.25;;;;;11.01;42.10;102506.91;5099746;27;45301;-49
2022/03/23 03:07:00;;;;;;;;;43.25;37.75;;;;;10.98;41.83;102502.66;5099578;27;47286;-48
2022/03/23 03:09:26;;;;;;;;;37.00;33.50;;;;;10.98;41.89;102513.28;5098124;27;45194;-49
2022/03/23 03:11:51;;;;;;;;;44.75;30.25;;;;;10.94;42.40;102506.47;5099757;27;45932;-50
2022/03/23 03:14:17;;;;;;;;;46.25;33.75;;;;;10.82;42.43;102494.00;5099608;27;45453;-48
2022/03/23 03:16:43;;;;;;;;;45.50;33.25;;;;;10.91;42.33;102512.88;5099549;27;45481;-48
2022/03/23 03:19:10;;;;;;;;;43.00;33.75;;;;;10.90;42.78;102523.63;5099292;27;45837;-50
2022/03/23 03:21:35;;;;;;;;;57.00;37.00;;;;;10.86;42.40;102522.97;5099288;27;45472;-49
2022/03/23 03:24:01;;;;;;;;;47.75;34.00;;;;;10.85;42.50;102521.28;5099359;27;45471;-49
2022/03/23 03:26:27;;;;;;;;;49.50;39.00;;;;;10.72;42.95;102510.63;5098895;27;46041;-48
2022/03/23 03:28:52;;;;;;;;;37.50;34.00;;;;;10.69;42.32;102507.31;5099170;27;45331;-49
2022/03/23 03:31:18;;;;;;;;;36.50;32.00;;;;;10.79;42.76;102529.69;5099256;27;45241;-54
2022/03/23 03:33:44;;;;;;;;;45.25;37.75;;;;;10.70;42.52;102517.88;5099455;27;45474;-50
2022/03/23 03:36:10;;;;;;;;;47.25;35.50;;;;;10.73;42.62;102532.75;5098940;27;47079;-51
2022/03/23 03:38:37;;;;;;;;;39.00;28.25;;;;;10.71;42.88;102529.38;5098971;27;45358;-50
2022/03/23 03:41:04;;;;;;;;;44.00;37.75;;;;;10.68;42.58;102533.06;5099076;27;45446;-52
2022/03/23 03:43:31;;;;;;;;;46.50;36.00;;;;;10.64;42.89;102534.22;5098985;27;45574;-49
2022/03/23 03:45:57;;;;;;;;;44.00;35.75;;;;;10.61;42.62;102544.22;5098722;27;45398;-50
2022/03/23 03:48:23;;;;;;;;;44.00;35.50;;;;;10.57;42.97;102534.75;5098753;27;45302;-49
2022/03/23 03:50:49;;;;;;;;;43.00;31.75;;;;;10.57;42.08;102537.41;5080159;27;45403;-49
2022/03/23 03:53:15;;;;;;;;;52.75;32.00;;;;;10.54;42.64;102549.13;5099271;27;45201;-50
2022/03/23 03:55:40;;;;;;;;;34.25;27.50;;;;;10.52;42.30;102545.69;5097931;27;46079;-48
2022/03/23 03:58:08;;;;;;;;;45.75;36.50;;;;;10.43;42.65;102552.47;5098709;27;45417;-50
2022/03/23 04:00:36;;;;;;;;;37.00;32.00;;;;;10.39;42.71;102550.97;5098750;27;45335;-51
2022/03/23 04:03:03;;;;;;;;;58.50;41.00;;;;;10.38;43.02;102556.41;5098984;27;45266;-51
2022/03/23 04:05:29;;;;;;;;;39.00;36.25;;;;;10.35;42.89;102551.28;5098395;27;45407;-53
2022/03/23 04:07:58;;;;;;;;;45.75;37.25;;;;;10.29;42.56;102549.91;5098545;27;45319;-53
2022/03/23 04:10:25;;;;;;;;;46.25;37.00;;;;;10.27;42.61;102556.25;5098414;27;45517;-49
2022/03/23 04:12:50;;;;;;;;;41.50;37.00;;;;;10.23;42.56;102558.22;5098699;27;45432;-51
2022/03/23 04:15:16;;;;;;;;;45.25;33.25;;;;;10.24;42.70;102559.94;5098486;27;46080;-49
2022/03/23 04:17:42;;;;;;;;;43.50;34.00;;;;;10.19;42.64;102560.22;5098359;27;45861;-52
2022/03/23 04:20:09;;;;;;;;;43.50;31.25;;;;;10.19;42.86;102565.53;5096992;27;45301;-54
2022/03/23 04:22:34;;;;;;;;;38.50;33.50;;;;;10.18;43.01;102574.47;5098738;27;45386;-52
2022/03/23 04:25:00;;;;;;;;;36.75;29.00;;;;;10.17;42.80;102572.78;5097746;27;45878;-48
2022/03/23 04:27:25;;;;;;;;;34.75;31.50;;;;;10.17;43.32;102566.63;5098476;27;45422;-50
2022/03/23 04:29:50;;;;;;;;;38.25;32.25;;;;;10.19;42.83;102572.66;5098404;27;45367;-52
2022/03/23 04:32:16;;;;;;;;;38.75;32.00;;;;;10.20;42.55;102571.75;5098721;27;45321;-51
2022/03/23 04:34:41;;;;;;;;;38.00;28.50;;;;;10.18;42.72;102573.63;5098242;27;45607;-54
2022/03/23 04:37:07;;;;;;;;;38.00;31.25;;;;;10.15;42.63;102572.00;5098193;27;45366;-52
2022/03/23 04:39:33;;;;;;;;;42.75;29.25;;;;;10.13;41.97;102579.25;5098353;27;45373;-52
2022/03/23 04:41:58;;;;;;;;;49.00;33.00;;;;;10.12;42.41;102577.56;5098106;27;45466;-53
2022/03/23 04:44:23;;;;;;;;;40.50;31.25;;;;;10.07;42.52;102581.44;5097137;27;45914;-54
2022/03/23 04:46:49;;;;;;;;;41.00;29.00;;;;;10.02;42.76;102573.75;5097968;27;45416;-50
2022/03/23 04:49:14;;;;;;;;;44.75;35.25;;;;;10.01;42.70;102572.06;5098037;27;45530;-48
2022/03/23 04:51:40;;;;;;;;;45.00;36.50;;;;;9.97;43.05;102576.72;5098285;27;45336;-48
2022/03/23 04:54:06;;;;;;;;;32.50;29.00;;;;;10.02;43.07;102583.53;5097686;27;46141;-49
2022/03/23 04:56:31;;;;;;;;;38.25;29.50;;;;;10.00;42.33;102586.31;5097772;27;45804;-48
2022/03/23 04:58:57;;;;;;;;;42.50;33.50;;;;;9.98;42.84;102582.88;5097885;27;45414;-49
2022/03/23 05:01:22;;;;;;;;;43.25;33.75;;;;;9.98;43.13;102582.88;5098150;27;45464;-49
2022/03/23 05:03:48;;;;;;;;;38.00;30.50;;;;;9.97;42.52;102590.00;5097531;27;46958;-49
2022/03/23 05:06:14;;;;;;;;;40.25;31.50;;;;;9.94;43.14;102578.72;5096422;27;45241;-49
2022/03/23 05:08:39;;;;;;;;;41.00;30.00;;;;;9.85;42.98;102572.19;5097637;27;45349;-50
2022/03/23 05:11:05;;;;;;;;;31.25;27.00;;;;;9.92;43.00;102586.78;5097793;27;45252;-50
2022/03/23 05:13:30;;;;;;;;;32.25;28.50;;;;;9.91;42.72;102593.06;5096101;27;46572;-49
2022/03/23 05:15:55;;;;;;;;;35.25;28.00;;;;;9.86;42.39;102589.84;5097506;27;45513;-49
2022/03/23 05:18:21;;;;;;;;;41.25;33.25;;;;;9.82;42.95;102584.81;5097673;27;45414;-49
2022/03/23 05:20:47;;;;;;;;;33.00;27.25;;;;;9.73;42.21;102572.94;5097923;27;45378;-47
2022/03/23 05:23:13;;;;;;;;;29.00;25.25;;;;;9.82;42.42;102590.13;5097469;27;46951;-49
2022/03/23 05:25:39;;;;;;;;;35.50;30.50;;;;;9.78;42.46;102585.97;5096923;27;45408;-49
2022/03/23 05:28:08;;;;;;;;;32.00;30.25;;;;;9.77;43.06;102598.38;5097598;27;45389;-49
2022/03/23 05:30:34;;;;;;;;;39.75;31.00;;;;;9.72;42.83;102592.50;5097567;27;45440;-48
2022/03/23 05:33:00;;;;;;;;;33.75;27.50;;;;;9.73;42.80;102583.56;5097037;27;47527;-49
2022/03/23 05:35:25;;;;;;;;;39.25;30.25;;;;;9.72;42.75;102589.84;5096969;27;45355;-49
2022/03/23 05:37:51;;;;;;;;;46.25;36.25;;;;;9.72;42.79;102593.34;5097144;27;45257;-49
2022/03/23 05:40:17;;;;;;;;;47.50;35.50;;;;;9.66;43.33;102580.47;5097528;27;45293;-48
2022/03/23 05:42:42;;;;;;;;;44.00;31.00;;;;;9.79;43.19;102600.97;5096955;27;45414;-52
2022/03/23 05:45:08;;;;;;;;;31.75;29.75;;;;;9.82;42.94;102595.44;5096884;27;45370;-53
2022/03/23 05:47:35;;;;;;;;;34.25;29.00;;;;;9.85;42.74;102597.91;5097111;27;45417;-49
2022/03/23 05:50:00;;;;;;;;;32.25;31.25;;;;;9.88;43.40;102595.91;5096924;27;45482;-49
2022/03/23 05:52:26;;;;;;;;;40.75;31.75;;;;;9.90;43.83;102590.50;5096241;27;45410;-51
2022/03/23 05:54:51;;;;;;;;;39.75;33.50;;;;;9.93;43.61;102591.16;5097183;27;45463;-50
2022/03/23 05:57:16;;;;;;;;;49.25;34.50;;;;;9.95;43.50;102596.41;5096980;27;45428;-48
2022/03/23 05:59:42;;;;;;;;;31.25;28.75;;;;;9.97;43.35;102592.66;5098251;27;45417;-47
2022/03/23 06:02:07;;;;;;;;;37.75;26.25;;;;;10.02;43.52;102599.50;5095686;27;47048;-48
2022/03/23 06:04:32;;;;;;;;;49.25;36.00;;;;;10.04;42.58;102602.94;5096448;27;45280;-53
2022/03/23 06:06:58;;;;;;;;;37.50;32.00;;;;;10.07;42.80;102602.72;5096861;27;45304;-49
2022/03/23 06:09:23;;;;;;;;;34.00;29.50;;;;;10.06;42.62;102616.97;5097056;27;45433;-49
2022/03/23 06:11:49;;;;;;;;;44.25;36.50;;;;;9.96;42.32;102635.31;5096374;27;46200;-50
2022/03/23 06:14:14;;;;;;;;;41.50;35.00;;;;;9.87;42.98;102627.91;5096453;27;45425;-52
2022/03/23 06:16:39;;;;;;;;;47.50;36.50;;;;;9.77;43.26;102621.44;5096746;27;46116;-49
2022/03/23 06:19:05;;;;;;;;;32.50;30.75;;;;;9.67;43.19;102613.19;5096918;27;45387;-50
2022/03/23 06:21:30;;;;;;;;;38.75;29.25;;;;;9.71;43.35;102633.31;5096364;27;46162;-51
2022/03/23 06:23:56;;;;;;;;;39.00;34.00;;;;;9.70;43.90;102635.13;5096262;27;45483;-49
2022/03/23 06:26:21;;;;;;;;;40.50;30.50;;;;;9.70;43.93;102634.28;5096540;27;45209;-49
2022/03/23 06:28:47;;;;;;;;;41.75;34.75;;;;;9.70;43.64;102640.44;5097065;27;45414;-50
2022/03/23 06:31:12;;;;;;;;;39.50;33.25;;;;;9.73;43.23;102631.41;5096416;27;45997;-48
2022/03/23 06:33:37;;;;;;;;;34.75;33.25;;;;;9.73;43.94;102642.94;5096420;27;45511;-47
2022/03/23 06:36:03;;;;;;;;;33.75;29.25;;;;;9.80;43.82;102645.19;5096354;27;45442;-50
2022/03/23 06:38:29;;;;;;;;;26.75;26.75;;;;;9.80;43.51;102643.38;5096541;27;45469;-49
2022/03/23 06:40:55;;;;;;;;;38.50;25.00;;;;;9.80;43.24;102638.06;5096519;27;45395;-50
2022/03/23 06:43:20;;;;;;;;;45.25;35.00;;;;;9.79;43.76;102643.50;5095991;27;45560;-51
2022/03/23 06:45:46;;;;;;;;;38.75;32.75;;;;;9.72;43.44;102637.69;5096442;27;45465;-49
2022/03/23 06:48:11;;;;;;;;;45.25;37.00;;;;;9.88;43.42;102654.41;5096489;27;45455;-49
2022/03/23 06:50:36;;;;;;;;;49.00;34.00;;;;;9.91;44.08;102659.53;5095903;27;45400;-55
2022/03/23 06:53:04;;;;;;;;;56.75;37.75;;;;;9.91;43.48;102659.53;5096263;27;45304;-54
2022/03/23 06:55:32;;;;;;;;;39.50;31.25;;;;;9.97;43.49;102653.81;5096223;27;45430;-54
2022/03/23 06:57:58;;;;;;;;;53.00;39.00;;;;;10.02;42.88;102666.81;5096049;27;45409;-54
2022/03/23 07:00:23;;;;;;;;;52.50;41.75;;;;;10.05;43.25;102658.66;5095964;27;45416;-54
2022/03/23 07:02:50;;;;;;;;;48.00;38.25;;;;;10.11;42.71;102668.03;5095762;27;45469;-49
2022/03/23 07:05:17;;;;;;;;;37.50;28.00;;;;;10.13;42.56;102671.47;5096178;27;45422;-53
2022/03/23 07:10:28;;;;;;;;;45.75;38.25;;;;;10.19;41.92;102671.94;5099534;27;45434;-50
2022/03/23 07:12:55;;;;;;;;;38.00;33.50;;;;;10.27;42.59;102671.47;5099341;27;45363;-52
2022/03/23 07:15:20;;;;;;;;;41.75;31.00;;;;;10.33;41.80;102672.91;5099413;27;45237;-50
2022/03/23 07:17:46;;;;;;;;;42.00;38.00;;;;;10.40;41.85;102675.06;5099692;27;45324;-53
2022/03/23 07:20:11;;;;;;;;;43.50;37.00;;;;;10.44;41.80;102678.38;5099429;27;46020;-48
2022/03/23 07:22:37;;;;;;;;;46.75;38.50;;;;;10.49;41.96;102669.19;5099185;27;45372;-50
2022/03/23 07:25:05;;;;;;;;;43.25;36.00;;;;;10.59;41.83;102680.06;5099290;27;45540;-52
2022/03/23 07:27:30;;;;;;;;;45.50;29.75;;;;;10.60;41.60;102670.28;5099205;27;45394;-54
2022/03/23 07:29:56;;;;;;;;;44.50;35.50;;;;;10.63;41.64;102667.41;5099022;27;46047;-51
2022/03/23 07:32:21;;;;;;;;;56.00;37.75;;;;;10.67;41.92;102675.09;5099083;27;45405;-51
2022/03/23 07:34:47;;;;;;;;;43.75;36.75;;;;;10.78;41.49;102670.88;5099567;27;45965;-53
2022/03/23 07:37:12;;;;;;;;;45.50;37.00;;;;;10.85;40.95;102674.84;5099479;27;45315;-52
2022/03/23 07:39:37;;;;;;;;;42.75;36.50;;;;;10.96;40.91;102681.19;5099161;27;45391;-50
2022/03/23 07:42:03;;;;;;;;;36.25;30.75;;;;;11.03;41.14;102684.25;5098969;27;45517;-51
2022/03/23 07:44:32;;;;;;;;;43.00;34.50;;;;;11.21;40.42;102682.19;5098882;27;45362;-54
2022/03/23 07:46:58;;;;;;;;;42.00;34.75;;;;;11.30;40.29;102686.06;5098956;27;45401;-53
2022/03/23 07:49:23;;;;;;;;;47.75;33.75;;;;;11.38;39.98;102678.41;5098390;27;46224;-51
2022/03/23 07:51:49;;;;;;;;;35.50;29.75;;;;;11.41;40.10;102686.16;5098854;27;45433;-54
2022/03/23 07:54:14;;;;;;;;;43.25;34.25;;;;;11.45;40.20;102691.16;5098530;27;45700;-52
2022/03/23 07:56:41;;;;;;;;;42.00;35.25;;;;;11.52;40.46;102696.09;5099104;27;45320;-53
2022/03/23 07:59:06;;;;;;;;;42.50;37.50;;;;;11.56;40.34;102703.78;5098670;27;45466;-52
2022/03/23 08:01:33;;;;;;;;;39.75;31.75;;;;;11.60;40.56;102705.28;5098144;27;45284;-51
2022/03/23 08:03:58;;;;;;;;;46.25;38.50;;;;;11.66;40.51;102704.00;5098789;27;45419;-51
2022/03/23 08:06:26;;;;;;;;;32.50;27.25;;;;;11.64;40.03;102688.09;5098647;27;45365;-49
2022/03/23 08:08:52;;;;;;;;;33.00;29.25;;;;;11.79;38.61;102701.31;5098560;27;47201;-53
2022/03/23 08:11:17;;;;;;;;;30.00;26.50;;;;;11.83;38.29;102705.53;5098596;27;46030;-53
2022/03/23 08:13:43;;;;;;;;;33.75;31.00;;;;;11.91;38.72;102708.50;5098523;27;45689;-53
2022/03/23 08:16:09;;;;;;;;;34.75;25.50;;;;;11.99;37.92;102711.50;5099126;27;45419;-51
2022/03/23 08:18:35;;;;;;;;;40.75;34.00;;;;;12.05;38.45;102691.53;5097676;27;46443;-47
2022/03/23 08:21:00;;;;;;;;;34.00;27.25;;;;;12.27;36.92;102714.88;5097989;27;45477;-51
2022/03/23 08:23:26;;;;;;;;;30.00;24.25;;;;;12.41;36.75;102712.91;5098614;27;45398;-53
2022/03/23 08:25:52;;;;;;;;;35.50;27.50;;;;;12.60;36.72;102712.44;5098515;27;45484;-51
2022/03/23 08:28:18;;;;;;;;;33.25;29.25;;;;;12.76;35.76;102713.97;5098118;27;47273;-50
2022/03/23 08:30:45;;;;;;;;;37.50;27.50;;;;;12.93;35.93;102718.94;5098373;27;45398;-50
2022/03/23 08:33:11;;;;;;;;;30.50;27.50;;;;;13.12;35.46;102711.25;5098509;27;45850;-52
2022/03/23 08:35:37;;;;;;;;;32.00;30.50;;;;;13.32;34.78;102708.94;5098530;27;45288;-52
2022/03/23 08:38:04;;;;;;;;;34.50;24.75;;;;;13.56;34.47;102700.84;5098082;27;46354;-52
2022/03/23 08:40:30;;;;;;;;;31.25;26.75;;;;;15.38;32.63;102707.50;5098228;27;45405;-52
2022/03/23 08:42:58;;;;;;;;;27.50;24.25;;;;;17.46;31.38;102705.91;5098369;27;45449;-52
2022/03/23 08:45:24;;;;;;;;;28.67;24.67;;;;;19.13;27.77;102695.03;5098242;27;45407;-52
2022/03/23 08:47:50;;;;;;;;;32.67;27.33;;;;;20.36;25.50;102683.13;5098092;27;46078;-52
2022/03/23 08:50:16;;;;;;;;;30.00;27.00;;;;;21.62;23.70;102693.75;5097893;27;45251;-53
2022/03/23 08:52:42;;;;;;;;;30.67;28.33;;;;;22.58;22.54;102690.00;5098029;27;45449;-53
2022/03/23 08:55:14;;;;;;;;;23.33;22.33;;;;;23.39;21.61;102685.84;5098230;27;45420;-50
2022/03/23 08:57:40;;;;;;;;;30.33;23.33;;;;;24.13;21.33;102686.72;5097648;27;45450;-51
2022/03/23 09:00:07;;;;;;;;;32.67;26.67;;;;;24.69;20.68;102693.47;5097565;27;45243;-50
2022/03/23 09:02:33;;;;;;;;;30.67;26.33;;;;;25.29;20.17;102690.31;5097770;27;45431;-51
2022/03/23 09:04:58;;;;;;;;;25.00;22.33;;;;;25.90;19.08;102700.59;5097727;27;45422;-52
2022/03/23 09:07:24;;;;;;;;;26.67;23.67;;;;;26.36;18.74;102692.63;5097760;27;46216;-49
2022/03/23 09:09:49;;;;;;;;;33.00;25.33;;;;;26.83;18.82;102700.97;5096179;27;45404;-49
2022/03/23 09:12:15;;;;;;;;;32.33;25.67;;;;;27.40;17.70;102696.00;5097935;27;45379;-50
2022/03/23 09:14:40;;;;;;;;;31.33;24.67;;;;;27.81;17.44;102693.84;5097451;27;45375;-52
2022/03/23 09:17:06;;;;;;;;;29.67;26.33;;;;;28.02;17.21;102687.25;5097308;27;46083;-53
2022/03/23 09:19:32;;;;;;;;;29.50;25.25;;;;;28.15;18.61;102690.97;5097534;27;45725;-52
2022/03/23 09:21:59;;;;;;;;;28.50;22.00;;;;;28.49;16.60;102681.59;5097451;27;45359;-51
2022/03/23 09:24:27;;;;;;;;;34.75;27.75;;;;;28.48;16.66;102680.72;5097698;27;45344;-51
2022/03/23 09:26:54;;;;;;;;;35.00;30.25;;;;;28.25;16.31;102675.78;5097015;27;46300;-48
2022/03/23 09:29:20;;;;;;;;;27.25;24.75;;;;;27.94;16.63;102683.91;5097203;27;45478;-54
2022/03/23 09:31:45;;;;;;;;;27.75;25.75;;;;;27.79;16.97;102675.97;5097373;27;45450;-48
2022/03/23 09:34:11;;;;;;;;;32.00;23.75;;;;;27.71;17.42;102678.91;5096396;27;45353;-52
2022/03/23 09:39:20;;;;;;;;;21.75;18.75;;;;;27.53;18.41;102687.78;5106656;27;45373;-53
2022/03/23 09:41:47;;;;;;;;;30.50;25.50;;;;;27.44;17.36;102681.69;5117946;27;45369;-51
2022/03/23 09:44:12;;;;;;;;;29.50;24.50;;;;;27.41;16.95;102684.00;5117889;27;45290;-51
2022/03/23 09:46:38;;;;;;;;;29.75;27.00;;;;;27.31;17.64;102685.28;5117619;27;45326;-50
2022/03/23 09:49:06;;;;;;;;;27.00;26.00;;;;;27.48;17.53;102682.09;5117314;27;45608;-52
2022/03/23 09:51:33;;;;;;;;;26.75;23.25;;;;;27.53;16.99;102677.69;5117319;27;45499;-52
2022/03/23 09:53:59;;;;;;;;;23.25;22.50;;;;;27.67;19.14;102681.22;5117859;27;45396;-50
2022/03/23 09:56:25;;;;;;;;;24.25;22.50;;;;;27.89;16.70;102683.72;5098636;27;45441;-48
2022/03/23 09:58:50;;;;;;;;;24.75;22.00;;;;;28.09;16.79;102681.75;5096510;27;45389;-49
2022/03/23 10:01:28;;;;;;;;;23.25;23.25;;;;;28.30;17.32;102683.34;5096826;27;45421;-54
2022/03/23 10:04:14;;;;;;;;;22.75;21.00;;;;;28.72;19.08;102681.03;5096588;27;45333;-54
2022/03/23 10:07:02;;;;;;;;;22.50;20.00;;;;;29.66;15.59;102679.19;5096364;27;46200;-49
2022/03/23 10:09:45;;;;;;;;;16.00;14.20;;;;;31.78;14.15;102682.38;5096223;27;45305;-48
2022/03/23 10:12:43;;;;;;;;;21.40;18.40;;;;;34.25;12.18;102681.53;5096324;27;45465;-51
2022/03/23 10:15:45;;;;;;;;;23.40;19.20;;;;;36.09;12.03;102674.66;5096614;27;45403;-52
2022/03/23 10:18:16;;;;;;;;;23.80;20.80;;;;;36.99;11.08;102674.22;5096531;27;46125;-50
2022/03/23 10:20:42;;;;;;;;;21.60;17.60;;;;;37.69;11.02;102666.03;5096561;27;45403;-52
2022/03/23 10:23:07;;;;;;;;;24.00;19.00;;;;;38.27;10.00;102671.03;5096727;27;45642;-51
2022/03/23 10:25:33;;;;;;;;;22.50;18.25;;;;;38.91;10.03;102664.47;5096742;27;45265;-51
2022/03/23 10:27:58;;;;;;;;;19.25;17.50;;;;;39.44;9.09;102661.69;5096316;27;45597;-50
2022/03/23 10:30:34;;;;;;;;;15.00;14.25;;;;;40.20;9.67;102667.41;5096491;27;45453;-50
2022/03/23 10:32:59;;;;;;;;;20.00;18.00;;;;;40.61;8.27;102650.88;5096569;27;45396;-52
2022/03/23 10:35:35;;;;;;;;;17.75;17.75;;;;;41.22;8.37;102655.38;5096953;27;45342;-53
2022/03/23 10:38:14;;;;;;;;;12.80;12.80;;;;;41.92;7.70;102650.59;5096379;27;46107;-50
2022/03/23 10:40:41;;;;;;;;;20.20;17.00;;;;;42.33;9.81;102651.31;5096570;27;45461;-51
2022/03/23 10:43:07;;;;;;;;;13.80;13.40;;;;;42.66;9.86;102648.28;5098396;27;45287;-47
2022/03/23 10:45:32;;;;;;;;;12.00;10.00;;;;;42.64;8.25;102641.34;5100250;27;45427;-51
2022/03/23 10:48:14;;;;;;;;;15.25;15.00;;;;;42.79;7.61;102626.94;5100034;27;45970;-50
2022/03/23 10:50:54;;;;;;;;;18.20;13.80;;;;;42.96;7.18;102643.00;5099813;27;45397;-50
2022/03/23 10:53:41;;;;;;;;;20.80;20.00;;;;;43.26;8.79;102628.16;5099945;27;45327;-50
2022/03/23 10:56:07;;;;;;;;;23.80;15.60;;;;;43.38;7.56;102630.34;5100064;27;45366;-51
2022/03/23 10:58:34;;;;;;;;;17.00;15.20;;;;;43.47;6.88;102634.00;5099531;27;47264;-55
2022/03/23 11:01:03;;;;;;;;;19.40;16.40;;;;;43.63;7.31;102628.78;5099523;27;45403;-50
2022/03/23 11:03:48;;;;;;;;;16.60;15.80;;;;;44.01;6.80;102626.19;5099848;27;45616;-49
2022/03/23 11:06:16;;;;;;;;;14.80;14.20;;;;;44.39;6.94;102627.50;5098539;27;45244;-50
2022/03/23 11:08:44;;;;;;;;;22.20;18.40;;;;;44.27;6.28;102623.38;5099457;27;45706;-50
2022/03/23 11:16:54;;;;;;;;;18.60;18.60;;;;;44.26;6.39;102615.31;5099604;27;45415;-48
2022/03/23 11:19:24;;;;;;;;;24.40;22.00;;;;;44.50;5.79;102615.59;5099014;27;46175;-51
2022/03/23 11:21:56;;;;;;;;;27.00;21.40;;;;;44.76;6.12;102606.28;5099362;27;45318;-51
2022/03/23 11:24:21;;;;;;;;;20.40;20.00;;;;;45.15;5.75;102602.34;5099284;27;45470;-52
2022/03/23 11:26:48;;;;;;;;;23.25;19.50;;;;;45.07;6.10;102606.00;5099804;27;45255;-50
2022/03/23 11:29:14;;;;;;;;;24.40;19.80;;;;;45.15;7.13;102605.13;5099104;27;47518;-50